createdAt,value
2018-09-03T00:00:23.190Z,90.77
2018-09-03T00:02:50.874Z,89.97
2018-09-03T00:05:18.535Z,82.53
2018-09-03T00:07:46.374Z,87.97
2018-09-03T00:10:14.036Z,87.47
2018-09-03T00:12:41.730Z,88.03
2018-09-03T00:15:09.428Z,86.03
2018-09-03T00:17:37.076Z,84.87
2018-09-03T00:20:04.773Z,87.72
2018-09-03T00:22:32.423Z,94.72
2018-09-03T00:25:00.114Z,96.03
2018-09-03T00:27:27.739Z,89.80
2018-09-03T00:29:55.390Z,92.80
2018-09-03T00:32:28.842Z,102.60
2018-09-03T00:35:02.415Z,101.03
2018-09-03T00:37:35.930Z,109.53
2018-09-03T00:40:09.443Z,115.27
2018-09-03T00:42:42.727Z,104.20
2018-09-03T00:45:16.256Z,98.97
2018-09-03T00:47:43.878Z,95.57
2018-09-03T00:50:11.657Z,89.75
2018-09-03T00:52:39.384Z,93.05
2018-09-03T00:55:07.090Z,84.83
2018-09-03T00:57:34.750Z,89.30
2018-09-03T01:00:02.485Z,90.20
2018-09-03T01:02:30.261Z,86.57
2018-09-03T01:04:57.891Z,90.20
2018-09-03T01:07:25.678Z,93.42
2018-09-03T01:09:53.317Z,91.53
2018-09-03T01:12:21.092Z,100.20
2018-09-03T01:14:48.832Z,94.67
2018-09-03T01:17:16.502Z,87.53
2018-09-03T01:19:44.196Z,91.83
2018-09-03T01:22:11.894Z,97.35
2018-09-03T01:24:39.580Z,95.93
2018-09-03T01:27:07.230Z,83.30
2018-09-03T01:29:34.921Z,81.63
2018-09-03T01:32:02.746Z,91.03
2018-09-03T01:34:30.356Z,86.33
2018-09-03T01:36:58.013Z,83.50
2018-09-03T01:39:25.677Z,81.37
2018-09-03T01:41:53.332Z,98.20
2018-09-03T01:44:21.057Z,83.67
2018-09-03T01:46:48.726Z,80.80
2018-09-03T01:49:16.453Z,85.33
2018-09-03T01:51:44.125Z,84.57
2018-09-03T01:54:11.790Z,85.95
2018-09-03T01:56:39.396Z,97.97
2018-09-03T01:59:07.028Z,100.75
2018-09-03T02:01:34.592Z,97.75
2018-09-03T02:04:02.342Z,95.33
2018-09-03T02:06:30.029Z,99.90
2018-09-03T02:08:57.756Z,91.47
2018-09-03T02:11:25.390Z,94.45
2018-09-03T02:13:53.028Z,89.83
2018-09-03T02:16:20.761Z,103.23
2018-09-03T02:18:48.344Z,85.80
2018-09-03T02:21:16.020Z,87.17
2018-09-03T02:23:43.656Z,100.65
2018-09-03T02:26:11.302Z,92.80
2018-09-03T02:28:38.999Z,96.50
2018-09-03T02:31:06.723Z,96.78
2018-09-03T02:33:34.419Z,89.90
2018-09-03T02:36:02.098Z,81.83
2018-09-03T02:38:29.837Z,89.67
2018-09-03T02:40:57.549Z,94.20
2018-09-03T02:43:25.251Z,110.65
2018-09-03T02:45:52.910Z,105.43
2018-09-03T02:48:21.109Z,100.70
2018-09-03T02:50:48.825Z,92.20
2018-09-03T02:53:16.490Z,98.17
2018-09-03T02:55:44.198Z,95.93
2018-09-03T02:58:11.849Z,92.73
2018-09-03T03:00:39.537Z,89.67
2018-09-03T03:03:07.189Z,92.97
2018-09-03T03:05:34.806Z,81.03
2018-09-03T03:08:02.511Z,94.60
2018-09-03T03:10:30.233Z,92.12
2018-09-03T03:12:57.910Z,95.57
2018-09-03T03:15:25.510Z,102.33
2018-09-03T03:17:53.188Z,111.87
2018-09-03T03:20:20.787Z,99.10
2018-09-03T03:22:48.450Z,105.97
2018-09-03T03:25:16.144Z,114.97
2018-09-03T03:27:43.721Z,106.17
2018-09-03T03:30:11.539Z,106.00
2018-09-03T03:32:39.573Z,98.00
2018-09-03T03:35:08.714Z,104.97
2018-09-03T03:37:36.576Z,93.57
2018-09-03T03:40:04.372Z,105.20
2018-09-03T03:42:31.996Z,107.00
2018-09-03T03:44:59.897Z,100.47
2018-09-03T03:47:27.722Z,98.15
2018-09-03T03:49:55.818Z,100.62
2018-09-03T03:52:23.540Z,96.82
2018-09-03T03:54:51.254Z,101.45
2018-09-03T03:57:18.886Z,103.10
2018-09-03T03:59:46.591Z,105.77
2018-09-03T04:02:14.244Z,122.37
2018-09-03T04:04:41.885Z,119.33
2018-09-03T04:07:09.576Z,111.25
2018-09-03T04:09:37.213Z,123.97
2018-09-03T04:12:04.916Z,123.87
2018-09-03T04:14:32.557Z,134.57
2018-09-03T04:17:00.293Z,125.70
2018-09-03T04:19:27.969Z,131.70
2018-09-03T04:21:55.669Z,124.03
2018-09-03T04:24:23.305Z,121.97
2018-09-03T04:26:51.018Z,114.10
2018-09-03T04:29:18.711Z,109.93
2018-09-03T04:31:46.505Z,128.30
2018-09-03T04:34:14.135Z,131.90
2018-09-03T04:36:41.795Z,126.38
2018-09-03T04:39:09.590Z,127.33
2018-09-03T04:41:37.597Z,130.60
2018-09-03T04:44:05.456Z,128.17
2018-09-03T04:46:33.517Z,122.90
2018-09-03T04:49:01.505Z,124.70
2018-09-03T04:51:29.445Z,141.88
2018-09-03T04:53:57.171Z,134.00
2018-09-03T04:56:24.851Z,127.95
2018-09-03T04:58:52.631Z,136.53
2018-09-03T05:01:20.365Z,151.93
2018-09-03T05:03:48.093Z,145.70
2018-09-03T05:06:15.741Z,148.93
2018-09-03T05:08:43.519Z,145.68
2018-09-03T05:11:11.179Z,157.90
2018-09-03T05:13:38.873Z,137.80
2018-09-03T05:16:06.554Z,139.90
2018-09-03T05:18:34.205Z,163.73
2018-09-03T05:21:01.810Z,146.87
2018-09-03T05:23:29.416Z,147.33
2018-09-03T05:25:57.118Z,147.60
2018-09-03T05:28:24.833Z,133.47
2018-09-03T05:30:52.568Z,146.43
2018-09-03T05:33:20.312Z,136.53
2018-09-03T05:35:48.008Z,142.87
2018-09-03T05:38:15.606Z,144.02
2018-09-03T05:40:43.233Z,146.87
2018-09-03T05:43:11.085Z,138.25
2018-09-03T05:45:38.750Z,154.65
2018-09-03T05:48:06.483Z,144.97
2018-09-03T05:50:34.175Z,122.80
2018-09-03T05:53:01.942Z,135.27
2018-09-03T05:55:29.585Z,146.53
2018-09-03T05:57:57.254Z,143.90
2018-09-03T06:00:25.045Z,145.20
2018-09-03T06:02:52.725Z,159.22
2018-09-03T06:05:20.436Z,160.13
2018-09-03T06:07:48.099Z,150.60
2018-09-03T06:10:15.833Z,171.17
2018-09-03T06:12:43.522Z,173.43
2018-09-03T06:15:11.154Z,181.23
2018-09-03T06:17:38.777Z,162.43
2018-09-03T06:20:06.440Z,171.50
2018-09-03T06:22:34.079Z,150.83
2018-09-03T06:25:02.187Z,145.03
2018-09-03T06:27:30.101Z,148.93
2018-09-03T06:29:57.779Z,140.77
2018-09-03T06:32:25.498Z,148.80
2018-09-03T06:34:53.207Z,144.57
2018-09-03T06:37:20.898Z,128.38
2018-09-03T06:39:48.625Z,139.97
2018-09-03T06:42:16.314Z,129.23
2018-09-03T06:44:43.958Z,138.23
2018-09-03T06:47:11.678Z,151.80
2018-09-03T06:49:39.448Z,138.68
2018-09-03T06:52:07.076Z,123.73
2018-09-03T06:54:34.731Z,120.47
2018-09-03T06:57:02.340Z,138.37
2018-09-03T06:59:29.960Z,135.07
2018-09-03T07:01:57.589Z,130.27
2018-09-03T07:04:25.252Z,132.22
2018-09-03T07:06:52.909Z,116.60
2018-09-03T07:09:20.507Z,117.30
2018-09-03T07:11:48.167Z,118.30
2018-09-03T07:14:15.992Z,117.17
2018-09-03T07:16:43.649Z,119.60
2018-09-03T07:19:11.258Z,115.97
2018-09-03T07:21:38.913Z,107.30
2018-09-03T07:24:06.639Z,102.43
2018-09-03T07:26:34.562Z,105.80
2018-09-03T07:29:02.216Z,97.40
2018-09-03T07:31:29.955Z,87.20
2018-09-03T07:33:57.713Z,86.80
2018-09-03T07:36:25.372Z,82.78
2018-09-03T07:38:52.960Z,80.10
2018-09-03T07:41:20.592Z,76.77
2018-09-03T07:43:48.338Z,76.67
2018-09-03T07:46:16.064Z,76.20
2018-09-03T07:48:43.766Z,71.60
2018-09-03T07:51:11.581Z,66.40
2018-09-03T07:53:39.290Z,60.67
2018-09-03T07:56:06.901Z,60.55
2018-09-03T07:58:35.462Z,58.20
2018-09-03T08:01:03.115Z,54.13
2018-09-03T08:03:30.799Z,55.00
2018-09-03T08:05:58.487Z,60.30
2018-09-03T08:08:26.166Z,57.87
2018-09-03T08:10:53.819Z,52.90
2018-09-03T08:13:27.149Z,58.60
2018-09-03T08:15:54.878Z,52.63
2018-09-03T08:18:22.561Z,53.70
2018-09-03T08:20:50.333Z,48.17
2018-09-03T08:23:17.991Z,44.30
2018-09-03T08:25:45.622Z,49.50
2018-09-03T08:28:13.338Z,49.13
2018-09-03T08:30:41.071Z,44.70
2018-09-03T08:33:08.694Z,48.92
2018-09-03T08:35:36.432Z,41.28
2018-09-03T08:38:04.365Z,44.63
2018-09-03T08:40:32.051Z,52.33
2018-09-03T08:42:59.693Z,50.57
2018-09-03T08:45:27.365Z,51.27
2018-09-03T08:47:55.071Z,48.97
2018-09-03T08:50:22.747Z,49.73
2018-09-03T08:52:50.398Z,44.97
2018-09-03T08:55:18.059Z,40.70
2018-09-03T08:57:45.669Z,40.98
2018-09-03T09:00:13.342Z,41.77
2018-09-03T09:02:41.008Z,45.77
2018-09-03T09:05:08.650Z,45.20
2018-09-03T09:07:36.297Z,49.40
2018-09-03T09:10:03.994Z,42.57
2018-09-03T09:12:31.630Z,46.23
2018-09-03T09:14:59.354Z,44.10
2018-09-03T09:17:27.085Z,41.77
2018-09-03T09:19:54.666Z,44.67
2018-09-03T09:22:22.309Z,36.43
2018-09-03T09:24:50.044Z,42.08
2018-09-03T09:27:17.673Z,40.50
2018-09-03T09:29:45.274Z,31.57
2018-09-03T09:32:12.965Z,30.67
2018-09-03T09:34:40.698Z,30.20
2018-09-03T09:37:08.311Z,31.05
2018-09-03T09:39:35.937Z,28.40
2018-09-03T09:42:03.668Z,32.70
2018-09-03T09:44:31.450Z,30.83
2018-09-03T09:46:59.097Z,22.83
2018-09-03T09:49:26.890Z,25.37
2018-09-03T09:51:54.546Z,28.73
2018-09-03T09:54:22.208Z,22.40
2018-09-03T09:56:49.976Z,25.20
2018-09-03T09:59:17.688Z,20.17
2018-09-03T10:01:45.410Z,21.23
2018-09-03T10:04:13.143Z,20.57
2018-09-03T10:06:40.801Z,18.63
2018-09-03T10:09:08.502Z,19.53
2018-09-03T10:11:36.119Z,20.70
2018-09-03T10:14:03.861Z,20.75
2018-09-03T10:16:31.485Z,18.37
2018-09-03T10:18:59.195Z,17.63
2018-09-03T10:21:26.818Z,18.60
2018-09-03T10:23:54.477Z,20.32
2018-09-03T10:26:22.265Z,19.30
2018-09-03T10:28:49.855Z,17.50
2018-09-03T10:31:17.600Z,29.23
2018-09-03T10:33:45.285Z,22.48
2018-09-03T10:36:12.910Z,24.33
2018-09-03T10:38:40.529Z,22.10
2018-09-03T10:41:08.189Z,18.70
2018-09-03T10:43:35.863Z,21.37
2018-09-03T10:46:03.499Z,22.50
2018-09-03T10:48:31.114Z,21.63
2018-09-03T10:50:59.231Z,24.77
2018-09-03T10:53:27.055Z,24.03
2018-09-03T10:55:54.689Z,26.83
2018-09-03T10:58:22.423Z,25.37
2018-09-03T11:00:50.111Z,27.40
2018-09-03T11:03:17.805Z,23.80
2018-09-03T11:05:45.480Z,24.50
2018-09-03T11:08:13.088Z,23.15
2018-09-03T11:10:40.754Z,23.67
2018-09-03T11:13:08.424Z,27.27
2018-09-03T11:15:36.156Z,24.20
2018-09-03T11:18:03.837Z,26.75
2018-09-03T11:20:31.649Z,29.02
2018-09-03T11:22:59.402Z,26.17
2018-09-03T11:25:29.096Z,21.53
2018-09-03T11:27:56.783Z,26.37
2018-09-03T11:30:25.097Z,22.30
2018-09-03T11:33:03.056Z,21.60
2018-09-03T11:35:30.746Z,22.27
2018-09-03T11:37:58.404Z,23.70
2018-09-03T11:40:26.389Z,23.65
2018-09-03T11:42:54.085Z,26.20
2018-09-03T11:45:22.661Z,27.00
2018-09-03T11:47:50.402Z,26.00
2018-09-03T11:50:18.747Z,24.47
2018-09-03T11:52:46.360Z,24.77
2018-09-03T11:55:14.496Z,23.20
2018-09-03T11:57:42.377Z,25.60
2018-09-03T12:00:13.541Z,24.13
2018-09-03T12:02:41.233Z,27.90
2018-09-03T12:05:09.550Z,26.83
2018-09-03T12:07:37.227Z,26.77
2018-09-03T12:10:05.352Z,27.10
2018-09-03T12:12:33.132Z,25.70
2018-09-03T12:15:05.941Z,30.13
2018-09-03T12:17:33.564Z,25.40
2018-09-03T12:20:01.214Z,27.45
2018-09-03T12:22:29.059Z,26.52
2018-09-03T12:24:56.681Z,27.10
2018-09-03T12:27:24.302Z,26.50
2018-09-03T12:29:51.964Z,27.43
2018-09-03T12:32:19.631Z,26.97
2018-09-03T12:34:47.292Z,29.07
2018-09-03T12:37:15.026Z,29.23
2018-09-03T12:39:42.712Z,28.70
2018-09-03T12:42:10.554Z,29.77
2018-09-03T12:44:38.240Z,25.77
2018-09-03T12:47:06.070Z,28.33
2018-09-03T12:49:33.887Z,26.20
2018-09-03T12:52:01.627Z,28.60
2018-09-03T12:54:29.322Z,29.33
2018-09-03T12:56:57.040Z,31.35
2018-09-03T12:59:24.670Z,31.05
2018-09-03T13:01:52.297Z,27.97
2018-09-03T13:04:19.970Z,33.37
2018-09-03T13:06:48.001Z,26.90
2018-09-03T13:09:16.615Z,27.93
2018-09-03T13:11:44.311Z,24.92
2018-09-03T13:14:12.997Z,23.77
2018-09-03T13:16:40.771Z,25.40
2018-09-03T13:19:08.487Z,24.30
2018-09-03T13:21:36.136Z,32.35
2018-09-03T13:24:03.811Z,27.75
2018-09-03T13:26:31.411Z,24.20
2018-09-03T13:28:59.103Z,26.07
2018-09-03T13:31:26.787Z,22.30
2018-09-03T13:33:54.464Z,21.12
2018-09-03T13:36:22.130Z,19.33
2018-09-03T13:38:49.768Z,20.47
2018-09-03T13:41:17.426Z,19.83
2018-09-03T13:43:45.134Z,17.13
2018-09-03T13:46:12.749Z,18.40
2018-09-03T13:48:40.340Z,16.87
2018-09-03T13:51:08.002Z,15.48
2018-09-03T13:53:35.666Z,14.43
2018-09-03T13:56:03.320Z,15.37
2018-09-03T13:58:30.947Z,14.67
2018-09-03T14:00:58.604Z,17.07
2018-09-03T14:03:26.289Z,15.68
2018-09-03T14:05:54.019Z,16.90
2018-09-03T14:08:21.649Z,18.70
2018-09-03T14:10:49.697Z,18.40
2018-09-03T14:13:17.476Z,18.70
2018-09-03T14:15:45.231Z,19.00
2018-09-03T14:18:12.945Z,18.80
2018-09-03T14:20:40.760Z,17.60
2018-09-03T14:23:08.397Z,18.12
2018-09-03T14:25:36.033Z,20.60
2018-09-03T14:28:03.757Z,18.73
2018-09-03T14:30:31.458Z,19.17
2018-09-03T14:32:59.112Z,19.97
2018-09-03T14:35:26.851Z,28.63
2018-09-03T14:37:54.569Z,24.43
2018-09-03T14:40:22.306Z,27.47
2018-09-03T14:42:51.780Z,18.05
2018-09-03T14:45:19.502Z,21.80
2018-09-03T14:47:47.247Z,19.40
2018-09-03T14:50:14.923Z,20.02
2018-09-03T14:52:42.613Z,23.00
2018-09-03T14:55:10.255Z,19.67
2018-09-03T14:57:37.955Z,16.90
2018-09-03T15:00:06.927Z,15.57
2018-09-03T15:02:34.709Z,16.00
2018-09-03T15:05:02.407Z,18.20
2018-09-03T15:07:30.229Z,21.10
2018-09-03T15:09:57.826Z,17.67
2018-09-03T15:12:25.440Z,20.83
2018-09-03T15:14:53.206Z,20.13
2018-09-03T15:17:20.843Z,19.53
2018-09-03T15:19:48.587Z,18.57
2018-09-03T15:22:16.705Z,18.12
2018-09-03T15:24:44.447Z,17.80
2018-09-03T15:27:13.104Z,21.25
2018-09-03T15:29:40.779Z,19.95
2018-09-03T15:32:08.429Z,20.83
2018-09-03T15:34:36.072Z,23.93
2018-09-03T15:37:03.747Z,16.80
2018-09-03T15:39:31.453Z,18.52
2018-09-03T15:41:59.132Z,20.43
2018-09-03T15:44:26.781Z,16.73
2018-09-03T15:46:54.648Z,21.63
2018-09-03T15:49:22.324Z,16.70
2018-09-03T15:51:49.966Z,16.87
2018-09-03T15:54:17.595Z,23.85
2018-09-03T15:56:45.268Z,20.33
2018-09-03T15:59:13.000Z,21.73
2018-09-03T16:01:40.716Z,18.45
2018-09-03T16:04:08.393Z,22.37
2018-09-03T16:06:36.036Z,16.90
2018-09-03T16:09:07.040Z,21.27
2018-09-03T16:11:34.802Z,17.10
2018-09-03T16:14:02.448Z,18.03
2018-09-03T16:16:30.173Z,17.17
2018-09-03T16:18:57.875Z,17.35
2018-09-03T16:21:25.559Z,15.97
2018-09-03T16:23:53.452Z,18.30
2018-09-03T16:26:21.212Z,18.20
2018-09-03T16:28:48.942Z,19.07
2018-09-03T16:31:16.653Z,21.50
2018-09-03T16:33:44.382Z,20.43
2018-09-03T16:36:12.074Z,16.70
2018-09-03T16:38:39.979Z,18.87
2018-09-03T16:41:07.914Z,17.03
2018-09-03T16:43:35.862Z,25.53
2018-09-03T16:46:03.710Z,21.57
2018-09-03T16:48:31.448Z,16.30
2018-09-03T16:50:59.284Z,17.50
2018-09-03T16:53:27.233Z,23.13
2018-09-03T16:55:54.979Z,19.00
2018-09-03T16:58:22.729Z,21.57
2018-09-03T17:00:50.512Z,22.30
2018-09-03T17:03:18.386Z,19.93
2018-09-03T17:05:46.110Z,25.90
2018-09-03T17:08:14.082Z,20.80
2018-09-03T17:10:41.753Z,21.27
2018-09-03T17:13:09.408Z,21.50
2018-09-03T17:15:37.129Z,20.97
2018-09-03T17:18:04.835Z,25.20
2018-09-03T17:20:32.640Z,18.00
2018-09-03T17:23:00.371Z,21.87
2018-09-03T17:25:28.544Z,18.40
2018-09-03T17:27:56.901Z,18.02
2018-09-03T17:30:24.676Z,27.80
2018-09-03T17:32:52.592Z,19.50
2018-09-03T17:35:20.789Z,20.13
2018-09-03T17:37:49.102Z,20.33
2018-09-03T17:40:17.398Z,25.63
2018-09-03T17:42:45.208Z,24.20
2018-09-03T17:45:12.964Z,27.40
2018-09-03T17:47:40.709Z,24.80
2018-09-03T17:50:08.810Z,24.05
2018-09-03T17:52:37.139Z,21.30
2018-09-03T17:55:05.110Z,29.23
2018-09-03T17:57:32.816Z,23.47
2018-09-03T18:00:03.161Z,72.30
2018-09-03T18:02:30.890Z,21.10
2018-09-03T18:04:58.733Z,21.90
2018-09-03T18:07:28.300Z,28.27
2018-09-03T18:09:57.125Z,20.03
2018-09-03T18:12:24.965Z,20.70
2018-09-03T18:14:52.624Z,24.33
2018-09-03T18:17:20.298Z,27.80
2018-09-03T18:19:48.139Z,19.48
2018-09-03T18:22:16.592Z,25.20
2018-09-03T18:24:44.414Z,24.13
2018-09-03T18:27:12.117Z,26.40
2018-09-03T18:29:39.842Z,23.42
2018-09-03T18:32:07.809Z,26.33
2018-09-03T18:34:36.171Z,25.52
2018-09-03T18:37:03.980Z,24.90
2018-09-03T18:39:31.701Z,25.63
2018-09-03T18:41:59.454Z,29.40
2018-09-03T18:44:27.961Z,20.75
2018-09-03T18:46:56.326Z,22.97
2018-09-03T18:49:24.241Z,26.60
2018-09-03T18:51:51.985Z,31.80
2018-09-03T18:54:19.677Z,25.50
2018-09-03T18:56:47.518Z,27.85
2018-09-03T18:59:15.456Z,23.87
2018-09-03T19:01:43.167Z,27.37
2018-09-03T19:04:10.821Z,25.37
2018-09-03T19:06:38.609Z,24.77
2018-09-03T19:09:07.919Z,30.03
2018-09-03T19:11:35.840Z,28.53
2018-09-03T19:14:03.636Z,19.87
2018-09-03T19:16:31.336Z,26.00
2018-09-03T19:18:59.091Z,28.62
2018-09-03T19:21:26.792Z,21.82
2018-09-03T19:23:54.394Z,26.07
2018-09-03T19:26:22.026Z,28.63
2018-09-03T19:28:49.714Z,27.67
2018-09-03T19:31:17.461Z,26.45
2018-09-03T19:33:45.244Z,22.90
2018-09-03T19:36:13.059Z,24.98
2018-09-03T19:38:40.773Z,33.33
2018-09-03T19:41:08.504Z,24.50
2018-09-03T19:43:36.181Z,27.93
2018-09-03T19:46:03.883Z,30.23
2018-09-03T19:48:31.689Z,30.15
2018-09-03T19:50:59.431Z,26.50
2018-09-03T19:53:27.081Z,24.13
2018-09-03T19:55:54.771Z,27.32
2018-09-03T19:58:22.538Z,25.57
2018-09-03T20:00:49.770Z,27.70
2018-09-03T20:03:16.967Z,26.40
2018-09-03T20:05:44.784Z,29.73
2018-09-03T20:08:12.513Z,29.10
2018-09-03T20:10:40.301Z,25.60
2018-09-03T20:13:07.998Z,27.32
2018-09-03T20:15:35.684Z,30.30
2018-09-03T20:18:03.362Z,31.93
2018-09-03T20:20:31.113Z,34.20
2018-09-03T20:22:58.821Z,28.23
2018-09-03T20:25:26.611Z,29.57
2018-09-03T20:27:54.333Z,28.97
2018-09-03T20:30:22.122Z,32.27
2018-09-03T20:32:49.814Z,25.37
2018-09-03T20:35:17.428Z,29.47
2018-09-03T20:37:45.100Z,27.13
2018-09-03T20:40:12.841Z,26.90
2018-09-03T20:42:40.525Z,28.23
2018-09-03T20:45:08.227Z,26.00
2018-09-03T20:47:35.952Z,25.50
2018-09-03T20:50:03.837Z,24.75
2018-09-03T20:52:31.519Z,23.90
2018-09-03T20:54:59.145Z,23.87
2018-09-03T20:57:26.785Z,27.75
2018-09-03T20:59:54.399Z,25.00
2018-09-03T21:02:22.070Z,26.10
2018-09-03T21:04:49.773Z,25.77
2018-09-03T21:07:17.507Z,27.20
2018-09-03T21:09:45.164Z,27.27
2018-09-03T21:12:12.828Z,28.67
2018-09-03T21:14:41.330Z,27.90
2018-09-03T21:17:08.906Z,32.88
2018-09-03T21:19:36.560Z,27.30
2018-09-03T21:22:04.272Z,30.70
2018-09-03T21:24:31.954Z,32.13
2018-09-03T21:26:59.630Z,33.60
2018-09-03T21:29:27.281Z,30.08
2018-09-03T21:31:54.922Z,28.10
2018-09-03T21:34:22.558Z,32.42
2018-09-03T21:36:50.227Z,33.88
2018-09-03T21:39:17.920Z,40.17
2018-09-03T21:41:45.614Z,52.17
2018-09-03T21:44:13.274Z,45.53
2018-09-03T21:46:40.997Z,45.35
2018-09-03T21:49:09.067Z,47.53
2018-09-03T21:51:36.709Z,45.20
2018-09-03T21:54:04.395Z,42.98
2018-09-03T21:56:32.056Z,52.03
2018-09-03T21:58:59.742Z,42.13
2018-09-03T22:01:27.614Z,43.83
2018-09-03T22:03:55.316Z,40.97
2018-09-03T22:06:22.935Z,36.28
2018-09-03T22:08:50.650Z,36.53
2018-09-03T22:11:18.283Z,36.77
2018-09-03T22:13:45.934Z,37.60
2018-09-03T22:16:13.562Z,34.77
2018-09-03T22:18:41.362Z,40.30
2018-09-03T22:21:08.985Z,36.40
2018-09-03T22:23:37.276Z,42.43
2018-09-03T22:26:04.941Z,40.67
2018-09-03T22:28:32.999Z,39.13
2018-09-03T22:31:00.672Z,44.43
2018-09-03T22:33:28.296Z,35.90
2018-09-03T22:35:56.098Z,39.60
2018-09-03T22:38:23.746Z,31.35
2018-09-03T22:40:51.342Z,39.40
2018-09-03T22:43:19.039Z,34.40
2018-09-03T22:45:46.718Z,29.80
2018-09-03T22:48:14.711Z,33.03
2018-09-03T22:50:42.431Z,39.93
2018-09-03T22:53:10.039Z,33.70
2018-09-03T22:55:37.675Z,36.40
2018-09-03T22:58:05.287Z,31.42
2018-09-03T23:00:32.912Z,41.90
2018-09-03T23:03:00.579Z,37.07
2018-09-03T23:05:28.211Z,29.00
2018-09-03T23:07:55.795Z,31.50
2018-09-03T23:10:23.460Z,33.78
2018-09-03T23:12:51.110Z,32.70
2018-09-03T23:15:18.779Z,31.97
2018-09-03T23:17:46.441Z,34.77
2018-09-03T23:20:14.098Z,29.60
2018-09-03T23:22:41.808Z,32.20
2018-09-03T23:25:09.502Z,31.00
2018-09-03T23:27:37.165Z,36.77
2018-09-03T23:30:04.940Z,34.50
2018-09-03T23:32:32.665Z,32.97
2018-09-03T23:35:00.324Z,35.87
2018-09-03T23:37:28.116Z,35.43
2018-09-03T23:39:55.777Z,31.37
2018-09-03T23:42:23.428Z,32.13
2018-09-03T23:44:51.150Z,37.85
2018-09-03T23:47:18.794Z,32.53
2018-09-03T23:49:46.545Z,32.77
2018-09-03T23:52:14.239Z,38.03
2018-09-03T23:54:41.969Z,36.25
2018-09-03T23:57:09.650Z,40.13
2018-09-03T23:59:37.483Z,40.83
